createdAt,value
2022-12-06T00:02:42.401Z,3.70
2022-12-06T00:07:44.266Z,3.60
2022-12-06T00:12:46.328Z,3.50
2022-12-06T00:17:48.155Z,3.40
2022-12-06T00:22:50.176Z,3.30
2022-12-06T00:27:52.055Z,3.20
2022-12-06T00:32:53.881Z,3.20
2022-12-06T00:37:55.712Z,3.20
2022-12-06T00:42:57.539Z,3.10
2022-12-06T00:47:59.351Z,3.00
2022-12-06T00:53:01.179Z,3.00
2022-12-06T00:58:03.028Z,2.90
2022-12-06T01:03:05.116Z,2.90
2022-12-06T01:08:07.086Z,2.80
2022-12-06T01:13:11.087Z,2.80
2022-12-06T01:18:12.960Z,2.80
2022-12-06T01:23:15.640Z,2.70
2022-12-06T01:28:17.494Z,2.70
2022-12-06T01:33:19.417Z,2.70
2022-12-06T01:38:21.233Z,2.70
2022-12-06T01:43:43.495Z,2.70
2022-12-06T01:48:46.112Z,2.70
2022-12-06T01:53:49.195Z,2.80
2022-12-06T01:59:00.455Z,2.80
2022-12-06T02:04:02.363Z,2.80
2022-12-06T02:09:06.156Z,2.80
2022-12-06T02:14:11.872Z,2.80
2022-12-06T02:19:29.063Z,2.80
2022-12-06T02:24:40.081Z,2.80
2022-12-06T02:29:53.827Z,2.70
2022-12-06T02:35:25.408Z,2.70
2022-12-06T02:40:32.815Z,2.70
2022-12-06T02:45:39.384Z,2.70
2022-12-06T02:50:44.999Z,2.70
2022-12-06T02:55:48.064Z,2.80
2022-12-06T03:01:26.421Z,2.80
2022-12-06T03:07:09.886Z,2.80
2022-12-06T03:12:18.761Z,2.80
2022-12-06T03:17:27.838Z,2.90
2022-12-06T03:22:39.961Z,2.80
2022-12-06T03:27:42.617Z,2.80
2022-12-06T03:32:47.265Z,2.80
2022-12-06T03:37:52.013Z,2.70
2022-12-06T03:42:54.179Z,2.70
2022-12-06T03:48:05.087Z,2.70
2022-12-06T03:53:07.020Z,2.70
2022-12-06T03:58:08.862Z,2.60
2022-12-06T04:03:10.701Z,2.70
2022-12-06T04:08:12.585Z,2.70
2022-12-06T04:13:19.557Z,2.70
2022-12-06T04:18:22.634Z,2.70
2022-12-06T04:23:24.943Z,2.80
2022-12-06T04:28:45.455Z,2.80
2022-12-06T04:34:05.695Z,2.80
2022-12-06T04:39:07.601Z,2.80
2022-12-06T04:44:09.825Z,2.90
2022-12-06T04:49:11.667Z,2.90
2022-12-06T04:54:13.534Z,3.00
2022-12-06T04:59:15.461Z,3.00
2022-12-06T05:04:17.592Z,3.10
2022-12-06T05:09:19.703Z,3.10
2022-12-06T05:14:21.630Z,3.20
2022-12-06T05:19:23.651Z,3.20
2022-12-06T05:24:25.475Z,3.20
2022-12-06T05:29:27.381Z,3.30
2022-12-06T05:34:29.235Z,3.30
2022-12-06T05:39:31.046Z,3.30
2022-12-06T05:44:32.959Z,3.30
2022-12-06T05:49:36.844Z,3.30
2022-12-06T05:54:38.713Z,3.30
2022-12-06T05:59:40.522Z,3.30
2022-12-06T06:04:42.355Z,3.30
2022-12-06T06:09:44.244Z,3.40
2022-12-06T06:14:46.103Z,3.40
2022-12-06T06:19:51.391Z,3.40
2022-12-06T06:24:53.490Z,3.50
2022-12-06T06:29:58.589Z,3.50
2022-12-06T06:35:03.713Z,3.50
2022-12-06T06:40:06.946Z,3.60
2022-12-06T06:45:09.201Z,3.70
2022-12-06T06:50:16.093Z,3.70
2022-12-06T06:55:20.205Z,3.70
2022-12-06T07:00:26.980Z,3.80
2022-12-06T07:05:29.146Z,3.80
2022-12-06T07:10:31.628Z,3.80
2022-12-06T07:15:33.648Z,3.80
2022-12-06T07:20:35.670Z,3.90
2022-12-06T07:25:37.550Z,3.90
2022-12-06T07:30:40.061Z,3.90
2022-12-06T07:36:10.827Z,3.90
2022-12-06T07:41:24.632Z,3.80
2022-12-06T07:46:26.529Z,3.90
2022-12-06T07:51:28.395Z,3.80
2022-12-06T07:56:30.221Z,3.90
2022-12-06T08:01:32.261Z,3.90
2022-12-06T08:06:34.896Z,3.90
2022-12-06T08:11:36.765Z,4.00
2022-12-06T08:16:41.034Z,4.00
2022-12-06T08:21:43.113Z,4.00
2022-12-06T08:26:45.306Z,4.00
2022-12-06T08:31:47.459Z,4.00
2022-12-06T08:36:49.357Z,4.10
2022-12-06T08:41:58.399Z,4.10
2022-12-06T08:47:01.636Z,4.10
2022-12-06T08:52:03.692Z,4.10
2022-12-06T08:57:05.537Z,4.00
2022-12-06T09:02:07.477Z,4.00
2022-12-06T09:07:11.905Z,4.00
2022-12-06T09:12:14.006Z,4.00
2022-12-06T09:17:15.909Z,4.00
2022-12-06T09:22:17.917Z,4.00
2022-12-06T09:27:19.948Z,4.10
2022-12-06T09:32:21.852Z,4.20
2022-12-06T09:37:23.924Z,4.40
2022-12-06T09:42:53.092Z,4.40
2022-12-06T09:48:03.888Z,4.50
2022-12-06T09:53:08.775Z,4.50
2022-12-06T09:58:21.926Z,4.40
2022-12-06T10:03:34.308Z,4.40
2022-12-06T10:08:51.314Z,4.40
2022-12-06T10:14:05.166Z,4.40
2022-12-06T10:19:42.536Z,4.40
2022-12-06T10:25:10.577Z,4.50
2022-12-06T10:30:14.631Z,4.50
2022-12-06T10:35:18.780Z,4.60
2022-12-06T10:40:39.415Z,4.60
2022-12-06T10:46:09.431Z,4.70
2022-12-06T10:51:15.326Z,4.70
2022-12-06T10:56:21.217Z,4.80
2022-12-06T11:01:28.278Z,4.90
2022-12-06T11:06:39.392Z,4.80
2022-12-06T11:11:41.687Z,4.90
2022-12-06T11:16:48.969Z,5.00
2022-12-06T11:22:00.089Z,5.10
2022-12-06T11:27:21.732Z,5.20
2022-12-06T11:32:23.645Z,5.20
2022-12-06T11:37:28.432Z,5.30
2022-12-06T11:42:30.259Z,5.30
2022-12-06T11:47:32.143Z,5.40
2022-12-06T11:52:36.719Z,5.40
2022-12-06T11:57:43.228Z,5.40
2022-12-06T12:02:47.207Z,5.40
2022-12-06T12:07:55.703Z,5.40
2022-12-06T12:13:31.497Z,5.30
2022-12-06T12:18:36.251Z,5.30
2022-12-06T12:23:43.648Z,5.40
2022-12-06T12:29:07.054Z,5.40
2022-12-06T12:34:28.712Z,5.20
2022-12-06T12:39:33.796Z,5.20
2022-12-06T12:44:39.025Z,5.10
2022-12-06T12:49:41.388Z,5.10
2022-12-06T12:54:43.253Z,5.10
2022-12-06T12:59:45.558Z,5.00
2022-12-06T13:04:59.837Z,5.00
2022-12-06T13:10:15.310Z,5.00
2022-12-06T13:15:21.754Z,5.00
2022-12-06T13:20:29.416Z,5.00
2022-12-06T13:25:33.113Z,5.00
2022-12-06T13:30:36.568Z,5.10
2022-12-06T13:35:40.831Z,5.10
2022-12-06T13:40:52.049Z,5.10
2022-12-06T13:45:55.349Z,5.10
2022-12-06T13:50:59.667Z,5.20
2022-12-06T13:56:23.619Z,5.20
2022-12-06T14:01:49.388Z,5.30
2022-12-06T14:12:29.265Z,5.30
2022-12-06T14:23:02.563Z,5.20
2022-12-06T14:28:06.973Z,5.10
2022-12-06T14:33:22.312Z,5.10
2022-12-06T14:38:28.969Z,5.00
2022-12-06T14:43:32.520Z,5.00
2022-12-06T14:48:53.355Z,4.90
2022-12-06T14:53:55.266Z,4.80
2022-12-06T14:59:00.996Z,4.80
2022-12-06T15:04:07.794Z,4.70
2022-12-06T15:09:15.509Z,4.70
2022-12-06T15:14:23.465Z,4.70
2022-12-06T15:19:26.036Z,4.60
2022-12-06T15:24:28.692Z,4.60
2022-12-06T15:29:30.552Z,4.60
2022-12-06T15:34:35.202Z,4.50
2022-12-06T15:39:37.097Z,4.50
2022-12-06T15:44:39.828Z,4.50
2022-12-06T15:49:44.157Z,4.50
2022-12-06T15:54:47.109Z,4.50
2022-12-06T15:59:50.044Z,4.50
2022-12-06T16:04:52.148Z,4.50
2022-12-06T16:09:53.998Z,4.50
2022-12-06T16:14:56.975Z,4.50
2022-12-06T16:20:17.452Z,4.50
2022-12-06T16:25:19.354Z,4.50
2022-12-06T16:30:34.271Z,4.50
2022-12-06T16:35:36.330Z,4.40
2022-12-06T16:40:38.194Z,4.40
2022-12-06T16:45:42.210Z,4.40
2022-12-06T16:50:45.783Z,4.40
2022-12-06T16:55:47.990Z,4.40
2022-12-06T17:00:49.904Z,4.30
2022-12-06T17:05:51.812Z,4.30
2022-12-06T17:11:13.615Z,4.30
2022-12-06T17:16:15.616Z,4.30
2022-12-06T17:21:17.539Z,4.30
2022-12-06T17:26:19.539Z,4.30
2022-12-06T17:31:21.943Z,4.30
2022-12-06T17:36:25.660Z,4.30
2022-12-06T17:41:51.792Z,4.30
2022-12-06T17:46:54.829Z,4.30
2022-12-06T17:51:57.085Z,4.30
2022-12-06T17:57:00.109Z,4.30
2022-12-06T18:02:18.385Z,4.40
2022-12-06T18:07:20.889Z,4.30
2022-12-06T18:12:22.741Z,4.30
2022-12-06T18:17:24.577Z,4.30
2022-12-06T18:22:26.421Z,4.30
2022-12-06T18:27:28.286Z,4.30
2022-12-06T18:32:30.189Z,4.40
2022-12-06T18:37:32.616Z,4.40
2022-12-06T18:42:34.490Z,4.30
2022-12-06T18:47:36.619Z,4.30
2022-12-06T18:52:39.702Z,4.30
2022-12-06T18:57:41.592Z,4.30
2022-12-06T19:02:43.514Z,4.30
2022-12-06T19:07:45.596Z,4.30
2022-12-06T19:12:47.459Z,4.30
2022-12-06T19:17:54.512Z,4.30
2022-12-06T19:22:56.356Z,4.30
2022-12-06T19:27:58.187Z,4.30
2022-12-06T19:33:00.029Z,4.20
2022-12-06T19:38:02.031Z,4.20
2022-12-06T19:43:22.407Z,4.20
2022-12-06T19:48:24.352Z,4.20
2022-12-06T19:53:26.177Z,4.20
2022-12-06T19:58:28.337Z,4.20
2022-12-06T20:03:30.169Z,4.20
2022-12-06T20:08:35.117Z,4.20
2022-12-06T20:13:36.940Z,4.30
2022-12-06T20:18:38.789Z,4.30
2022-12-06T20:23:40.641Z,4.30
2022-12-06T20:28:43.360Z,4.30
2022-12-06T20:33:45.800Z,4.30
2022-12-06T20:38:47.837Z,4.30
2022-12-06T20:43:51.144Z,4.20
2022-12-06T20:48:53.921Z,4.30
2022-12-06T20:54:00.736Z,4.20
2022-12-06T20:59:04.364Z,4.20
2022-12-06T21:04:06.501Z,4.10
2022-12-06T21:09:12.729Z,4.10
2022-12-06T21:14:16.245Z,4.00
2022-12-06T21:19:19.589Z,4.00
2022-12-06T21:24:22.074Z,4.00
2022-12-06T21:29:30.546Z,4.00
2022-12-06T21:34:33.131Z,4.00
2022-12-06T21:39:35.185Z,4.00
2022-12-06T21:44:38.169Z,4.00
2022-12-06T21:49:40.101Z,4.00
2022-12-06T21:54:41.938Z,4.00
2022-12-06T21:59:43.893Z,4.00
2022-12-06T22:04:45.817Z,4.00
2022-12-06T22:09:47.669Z,3.90
2022-12-06T22:14:49.645Z,3.90
2022-12-06T22:19:51.492Z,3.90
2022-12-06T22:24:54.003Z,3.90
2022-12-06T22:29:55.925Z,3.90
2022-12-06T22:34:57.869Z,3.90
2022-12-06T22:40:00.024Z,3.90
2022-12-06T22:45:03.398Z,4.00
2022-12-06T22:50:08.163Z,4.00
2022-12-06T22:55:09.989Z,4.10
2022-12-06T23:00:14.487Z,4.10
2022-12-06T23:05:16.336Z,4.10
2022-12-06T23:10:18.308Z,4.10
2022-12-06T23:15:20.139Z,4.20
2022-12-06T23:20:22.028Z,4.20
2022-12-06T23:25:23.918Z,4.20
2022-12-06T23:30:25.804Z,4.30
2022-12-06T23:35:28.014Z,4.30
2022-12-06T23:40:30.111Z,4.30
2022-12-06T23:45:32.027Z,4.30
2022-12-06T23:50:33.976Z,4.30
2022-12-06T23:55:35.852Z,4.30
